메인 페이지
METAR-TAF:

METAR-TAF

공항 :

본리키 국제공항

타라와, 키리바시

위도: 01-21N, 경도: 172-55E, 고도: 2m

현재 날씨관측

예보는 1 시간 4분 전, 04:00시(UTC)에 발표되었습니다.
남남동7kt
온도 31°C
습도 66%
기압 1006 hPa
시정 10km 이상
고도 2000ft 상공 구름 조금
고도 30000ft 상공 구름 많음

METAR: NGTA 150400Z 15007KT 9999 FEW020 BKN300 31/24 Q1006

시각: 19:04 (05:04 UTC)

예보

예보는 5 시간 43분 전, 23:21시(UTC)에 발표되었습니다.
예보 대상 시간: 15일 00시부터 15일 24시까지 (UTC)
8kt
시정 10km 이상
고도 1800ft 상공 구름 보통
고도 10000ft 상공 구름 많음
확률 30% :
일시적
15일 00시부터 15일 06시까지 (UTC)
시정: 5000m
고도 1500ft 상공 구름 많음
소나기

TAF: NGTA 142321Z 1500/1524 09008KT 9999 SCT018 BKN100 PROB30 TEMPO 1500/1506 5000 SHRA BKN015

4,000개 이상의 공항 관측 자료 및 예보 (METAR 및 TAF 보고).

지도상에서 검색 가능한 기상관측소가 노란 점과 빨간 점으로 표시되어 있습니다.

기상관측소 명을 보려면 표시 위로 마우스를 이동하세요.

날씨 관측과 예보를 보려면 클릭하세요.

지도 변경 : 확대하려면 엑스 표시가 있는 녹색 버튼, 축소하려면 빼기 표시가 있는 녹색 버튼, 다음 페이지의 지도를 보려면 녹색 화살표를 클릭하세요.


METAR-TAF: